Time;durP1;ratioP1;P1;durP2;ratioP2;P2;SDS_P1;SDS_P2;PMS_P1;PMS_P2;Temp;Humidity;BMP_temperature;BMP_pressure;BME280_temperature;BME280_humidity;BME280_pressure;Samples;Min_cycle;Max_cycle;Signal;HPM_P1;HPM_P2
2022/09/23 00:01:45;;;;;;;10.02;8.82;;;10.60;99.90;;;;;;5102677;28;20146;-74
2022/09/23 00:04:10;;;;;;;9.95;8.90;;;10.60;99.90;;;;;;5105542;28;20035;-74
2022/09/23 00:06:37;;;;;;;12.32;9.25;;;10.60;99.90;;;;;;5103139;28;20098;-74
2022/09/23 00:09:03;;;;;;;10.23;9.15;;;10.60;99.90;;;;;;5105799;27;20060;-73
2022/09/23 00:11:29;;;;;;;10.43;9.15;;;10.60;99.90;;;;;;5086744;28;20152;-73
2022/09/23 00:13:57;;;;;;;14.45;9.43;;;10.50;99.90;;;;;;5103063;28;20047;-74
2022/09/23 00:16:27;;;;;;;12.32;9.40;;;10.50;99.90;;;;;;5096153;28;20077;-73
2022/09/23 00:18:53;;;;;;;12.65;9.18;;;10.50;99.90;;;;;;5106061;28;20043;-73
2022/09/23 00:21:20;;;;;;;10.90;9.55;;;10.50;99.90;;;;;;5109514;28;20035;-73
2022/09/23 00:23:46;;;;;;;10.85;9.60;;;10.50;99.90;;;;;;5108600;28;20092;-73
2022/09/23 00:26:14;;;;;;;11.18;9.30;;;10.50;99.90;;;;;;5100235;28;20115;-73
2022/09/23 00:28:40;;;;;;;11.02;9.55;;;10.40;99.90;;;;;;5108970;28;20059;-74
2022/09/23 00:31:15;;;;;;;12.52;9.90;;;10.40;99.90;;;;;;5104455;28;20445;-74
2022/09/23 00:33:40;;;;;;;12.75;10.10;;;10.40;99.90;;;;;;5103366;28;20066;-74
2022/09/23 00:36:14;;;;;;;13.20;9.82;;;10.40;99.90;;;;;;5104122;28;20043;-74
2022/09/23 00:38:40;;;;;;;13.57;10.73;;;10.40;99.90;;;;;;5105869;28;20043;-74
2022/09/23 00:41:06;;;;;;;11.80;9.70;;;10.40;99.90;;;;;;5110919;28;20065;-75
2022/09/23 00:43:48;;;;;;;11.63;10.07;;;10.30;99.90;;;;;;5105365;28;20097;-74
2022/09/23 00:46:18;;;;;;;12.48;10.27;;;10.30;99.90;;;;;;5103712;28;20032;-73
2022/09/23 00:48:46;;;;;;;12.82;10.48;;;10.30;99.90;;;;;;5100263;28;20038;-74
2022/09/23 00:51:16;;;;;;;11.32;9.95;;;10.30;99.90;;;;;;5108884;28;20169;-74
2022/09/23 00:53:44;;;;;;;9.68;8.68;;;10.20;99.90;;;;;;5106718;28;20070;-74
2022/09/23 00:56:11;;;;;;;12.40;10.05;;;10.30;99.90;;;;;;5105200;28;20040;-73
2022/09/23 00:58:40;;;;;;;15.43;10.27;;;10.20;99.90;;;;;;5101586;28;20123;-74
2022/09/23 01:01:06;;;;;;;13.35;10.55;;;10.20;99.90;;;;;;5088460;28;20042;-73
2022/09/23 01:03:31;;;;;;;11.65;9.70;;;10.20;99.90;;;;;;5103168;28;20548;-74
2022/09/23 01:05:58;;;;;;;10.85;9.20;;;10.30;99.90;;;;;;5104404;28;20039;-72
2022/09/23 01:08:25;;;;;;;12.52;10.93;;;10.20;99.90;;;;;;5106446;28;20050;-74
2022/09/23 01:11:17;;;;;;;12.00;10.13;;;10.20;99.90;;;;;;5103834;28;20035;-72
2022/09/23 01:14:05;;;;;;;11.48;9.65;;;10.20;99.90;;;;;;5093523;28;20040;-74
2022/09/23 01:16:46;;;;;;;13.57;9.75;;;10.20;99.90;;;;;;5106606;28;20135;-73
2022/09/23 01:19:31;;;;;;;14.10;9.85;;;10.20;99.90;;;;;;5092539;28;20541;-73
2022/09/23 01:22:18;;;;;;;13.40;10.82;;;10.20;99.90;;;;;;5098823;28;20040;-74
2022/09/23 01:24:58;;;;;;;12.85;10.75;;;10.20;99.90;;;;;;5108984;28;20046;-75
2022/09/23 01:28:04;;;;;;;15.25;10.98;;;10.10;99.90;;;;;;5087168;28;20067;-74
2022/09/23 01:30:42;;;;;;;14.68;10.55;;;10.10;99.90;;;;;;5107715;28;20040;-75
2022/09/23 01:33:21;;;;;;;13.27;10.30;;;10.10;99.90;;;;;;5103559;28;20047;-74
2022/09/23 01:36:12;;;;;;;11.35;9.90;;;10.10;99.90;;;;;;5108910;28;20075;-74
2022/09/23 01:38:49;;;;;;;15.20;10.15;;;10.10;99.90;;;;;;5097663;28;20509;-74
2022/09/23 01:41:44;;;;;;;13.00;10.85;;;10.10;99.90;;;;;;5101555;28;20058;-73
2022/09/23 01:44:42;;;;;;;14.55;10.95;;;10.10;99.90;;;;;;5098729;28;20028;-74
2022/09/23 01:47:16;;;;;;;17.95;10.32;;;10.10;99.90;;;;;;5100789;28;20039;-75
2022/09/23 01:49:47;;;;;;;12.95;10.45;;;10.10;99.90;;;;;;5107029;28;20078;-74
2022/09/23 01:52:27;;;;;;;13.95;10.82;;;10.10;99.90;;;;;;5090557;28;20084;-75
2022/09/23 01:55:15;;;;;;;13.93;11.02;;;10.10;99.90;;;;;;5102187;28;20032;-75
2022/09/23 01:57:47;;;;;;;14.18;10.65;;;10.10;99.90;;;;;;5105605;28;20039;-74
2022/09/23 02:00:15;;;;;;;12.88;10.68;;;10.10;99.90;;;;;;5107048;28;20046;-75
2022/09/23 02:03:12;;;;;;;13.70;10.40;;;10.00;99.90;;;;;;5108672;28;20027;-74
2022/09/23 02:05:58;;;;;;;12.50;10.52;;;10.00;99.90;;;;;;5101832;28;20044;-75
2022/09/23 02:08:36;;;;;;;12.18;10.20;;;10.00;99.90;;;;;;5106102;28;20096;-75
2022/09/23 02:11:14;;;;;;;12.38;10.48;;;10.00;99.90;;;;;;5079120;28;20044;-75
2022/09/23 02:13:50;;;;;;;13.23;10.18;;;10.00;99.90;;;;;;5107836;28;20040;-75
2022/09/23 02:16:30;;;;;;;13.02;10.77;;;9.90;99.90;;;;;;5093008;28;20615;-76
2022/09/23 02:19:11;;;;;;;15.32;10.50;;;9.90;99.90;;;;;;5099019;28;20138;-75
2022/09/23 02:21:46;;;;;;;13.38;10.70;;;9.90;99.90;;;;;;5109794;28;20123;-74
2022/09/23 02:24:21;;;;;;;12.10;10.20;;;9.90;99.90;;;;;;5104050;28;20044;-74
2022/09/23 02:26:58;;;;;;;11.90;10.20;;;9.80;99.90;;;;;;5117390;27;20032;-74
2022/09/23 02:29:37;;;;;;;12.93;9.88;;;9.80;99.90;;;;;;5092176;28;20040;-74
2022/09/23 02:32:12;;;;;;;12.07;9.52;;;9.70;99.90;;;;;;5098931;28;20123;-75
2022/09/23 02:34:56;;;;;;;12.40;10.18;;;9.70;99.90;;;;;;5107659;28;20047;-75
2022/09/23 02:38:09;;;;;;;12.55;9.63;;;9.60;99.90;;;;;;5102634;28;20035;-75
2022/09/23 02:40:57;;;;;;;12.45;10.18;;;9.60;99.90;;;;;;5086765;28;20056;-75
2022/09/23 02:43:58;;;;;;;10.45;9.27;;;9.50;99.90;;;;;;5098235;28;20048;-74
2022/09/23 02:46:25;;;;;;;12.27;10.57;;;9.50;99.90;;;;;;5063966;28;20644;-75
2022/09/23 02:49:14;;;;;;;11.75;9.73;;;9.40;99.90;;;;;;5108331;28;20110;-74
2022/09/23 02:51:40;;;;;;;13.20;10.40;;;9.40;99.90;;;;;;5101875;28;20043;-74
2022/09/23 02:54:09;;;;;;;13.98;10.82;;;9.40;99.90;;;;;;5102813;28;20043;-75
2022/09/23 02:56:36;;;;;;;14.18;10.10;;;9.30;99.90;;;;;;5084188;28;20036;-75
2022/09/23 02:59:02;;;;;;;14.45;10.93;;;9.30;99.90;;;;;;5102643;28;20047;-73
2022/09/23 03:01:55;;;;;;;10.50;9.40;;;9.30;99.90;;;;;;5096548;28;20047;-74
2022/09/23 03:04:52;;;;;;;12.77;9.93;;;9.30;99.90;;;;;;5104358;28;20047;-74
2022/09/23 03:07:55;;;;;;;13.15;11.43;;;9.20;99.90;;;;;;5097989;28;20081;-73
2022/09/23 03:10:56;;;;;;;11.25;9.57;;;9.20;99.90;;;;;;5104672;28;20051;-74
2022/09/23 03:14:02;;;;;;;13.05;10.38;;;9.10;99.90;;;;;;5070672;28;20480;-73
2022/09/23 03:16:46;;;;;;;12.93;10.73;;;9.10;99.90;;;;;;5106996;28;20409;-74
2022/09/23 03:19:33;;;;;;;13.45;11.02;;;9.10;99.90;;;;;;5097694;28;20405;-74
2022/09/23 03:22:11;;;;;;;13.75;10.50;;;9.10;99.90;;;;;;5096260;28;20523;-74
2022/09/23 03:24:39;;;;;;;11.20;9.85;;;9.00;99.90;;;;;;5087281;28;20035;-75
2022/09/23 03:27:12;;;;;;;12.40;10.45;;;9.00;99.90;;;;;;5105744;28;20040;-73
2022/09/23 03:29:44;;;;;;;13.90;11.15;;;9.00;99.90;;;;;;5099046;28;20043;-74
2022/09/23 03:32:11;;;;;;;13.95;11.88;;;8.90;99.90;;;;;;5105979;28;20043;-75
2022/09/23 03:34:41;;;;;;;14.45;11.52;;;8.90;99.90;;;;;;5104098;28;20101;-74
2022/09/23 03:37:32;;;;;;;12.93;11.40;;;8.90;99.90;;;;;;5099798;28;20089;-73
2022/09/23 03:40:07;;;;;;;12.93;10.73;;;8.90;99.90;;;;;;5086266;28;20196;-74
2022/09/23 03:42:33;;;;;;;14.90;11.02;;;8.90;99.90;;;;;;5102497;28;20103;-74
2022/09/23 03:45:00;;;;;;;13.95;11.57;;;8.90;99.90;;;;;;5106901;28;20047;-74
2022/09/23 03:47:27;;;;;;;13.15;11.55;;;8.90;99.90;;;;;;5102562;28;20560;-74
2022/09/23 03:49:53;;;;;;;12.80;11.38;;;8.80;99.90;;;;;;5101015;28;20036;-74
2022/09/23 03:52:21;;;;;;;13.80;11.55;;;8.80;99.90;;;;;;5103601;28;20035;-74
2022/09/23 03:54:47;;;;;;;12.43;11.13;;;8.80;99.90;;;;;;5105597;28;20032;-75
2022/09/23 03:57:13;;;;;;;13.43;11.30;;;8.80;99.90;;;;;;5098158;28;20047;-74
2022/09/23 03:59:39;;;;;;;12.63;11.32;;;8.80;99.90;;;;;;5090728;28;20497;-74
2022/09/23 04:02:06;;;;;;;12.82;11.38;;;8.70;99.90;;;;;;5101873;28;20043;-74
2022/09/23 04:04:33;;;;;;;18.35;11.60;;;8.70;99.90;;;;;;5100723;28;20093;-74
2022/09/23 04:06:59;;;;;;;13.60;12.20;;;8.70;99.90;;;;;;5110127;28;20398;-74
2022/09/23 04:09:25;;;;;;;15.07;11.93;;;8.70;99.90;;;;;;5076029;28;20617;-74
2022/09/23 04:11:51;;;;;;;13.57;12.13;;;8.70;99.90;;;;;;5108594;28;20039;-74
2022/09/23 04:14:18;;;;;;;15.73;12.52;;;8.70;99.90;;;;;;5104927;28;20040;-74
2022/09/23 04:16:44;;;;;;;14.95;11.90;;;8.70;99.90;;;;;;5096576;28;20085;-74
2022/09/23 04:19:11;;;;;;;13.43;12.02;;;8.70;99.90;;;;;;5097424;28;20571;-74
2022/09/23 04:21:37;;;;;;;12.95;11.50;;;8.70;99.90;;;;;;5090785;28;20089;-74
2022/09/23 04:24:04;;;;;;;15.52;11.65;;;8.60;99.90;;;;;;5107912;28;20741;-74
2022/09/23 04:26:31;;;;;;;15.23;12.05;;;8.60;99.90;;;;;;5102576;28;20043;-74
2022/09/23 04:28:57;;;;;;;13.95;11.85;;;8.60;99.90;;;;;;5105524;28;20457;-73
2022/09/23 04:31:23;;;;;;;12.68;11.38;;;8.60;99.90;;;;;;5087685;28;20039;-73
2022/09/23 04:33:52;;;;;;;14.93;12.40;;;8.60;99.90;;;;;;5108507;28;20052;-74
2022/09/23 04:36:18;;;;;;;13.20;11.77;;;8.60;99.90;;;;;;5110433;28;20097;-74
2022/09/23 04:38:44;;;;;;;14.43;12.90;;;8.60;99.90;;;;;;5108748;28;20073;-74
2022/09/23 04:41:10;;;;;;;14.60;11.65;;;8.60;99.90;;;;;;5104765;28;20129;-74
2022/09/23 04:43:36;;;;;;;14.25;12.63;;;8.60;99.90;;;;;;5101716;28;20035;-72
2022/09/23 04:46:04;;;;;;;13.43;12.02;;;8.60;99.90;;;;;;5103373;28;20180;-73
2022/09/23 04:48:30;;;;;;;13.77;12.27;;;8.60;99.90;;;;;;5099795;28;20035;-73
2022/09/23 04:51:11;;;;;;;15.55;13.82;;;8.60;99.90;;;;;;5082864;28;20044;-73
2022/09/23 04:53:38;;;;;;;15.25;13.35;;;8.60;99.90;;;;;;5103143;28;20031;-74
2022/09/23 04:56:08;;;;;;;15.02;13.52;;;8.60;99.90;;;;;;5104234;28;20043;-74
2022/09/23 04:58:34;;;;;;;18.05;13.75;;;8.60;99.90;;;;;;5108987;28;20076;-74
2022/09/23 05:01:11;;;;;;;18.35;13.57;;;8.60;99.90;;;;;;5107577;28;20042;-73
2022/09/23 05:03:36;;;;;;;15.57;13.00;;;8.60;99.90;;;;;;5084196;28;20068;-74
2022/09/23 05:06:02;;;;;;;15.20;13.60;;;8.60;99.90;;;;;;5093244;28;20480;-74
2022/09/23 05:08:28;;;;;;;14.40;12.82;;;8.60;99.90;;;;;;5087376;28;20038;-74
2022/09/23 05:10:58;;;;;;;16.50;13.57;;;8.60;99.90;;;;;;5108005;28;20051;-74
2022/09/23 05:13:24;;;;;;;15.00;12.75;;;8.60;99.90;;;;;;5111453;28;20043;-73
2022/09/23 05:16:00;;;;;;;15.80;13.52;;;8.60;99.90;;;;;;5099493;28;20084;-73
2022/09/23 05:18:27;;;;;;;15.88;13.35;;;8.60;99.90;;;;;;5082506;28;20446;-74
2022/09/23 05:20:55;;;;;;;18.20;14.63;;;8.60;99.90;;;;;;5104042;28;20057;-74
2022/09/23 05:23:22;;;;;;;15.55;13.00;;;8.60;99.90;;;;;;5105377;28;20647;-74
2022/09/23 05:25:48;;;;;;;17.58;13.80;;;8.60;99.90;;;;;;5108684;28;20063;-74
2022/09/23 05:28:18;;;;;;;20.77;14.18;;;8.60;99.90;;;;;;5095860;28;20683;-74
2022/09/23 05:30:43;;;;;;;16.80;14.23;;;8.60;99.90;;;;;;5084689;28;20043;-74
2022/09/23 05:33:09;;;;;;;16.35;14.27;;;8.60;99.90;;;;;;5104491;28;20501;-74
2022/09/23 05:35:35;;;;;;;15.73;14.05;;;8.70;99.90;;;;;;5091373;28;20043;-74
2022/09/23 05:38:01;;;;;;;15.93;13.85;;;8.70;99.90;;;;;;5107960;28;20044;-73
2022/09/23 05:40:26;;;;;;;15.88;14.13;;;8.70;99.90;;;;;;5104957;28;20110;-74
2022/09/23 05:42:51;;;;;;;16.08;13.32;;;8.70;99.90;;;;;;5096908;28;20077;-74
2022/09/23 05:45:17;;;;;;;16.23;13.60;;;8.70;99.90;;;;;;5104192;28;20130;-74
2022/09/23 05:47:43;;;;;;;18.63;14.50;;;8.80;99.90;;;;;;5105742;28;20078;-74
2022/09/23 05:50:08;;;;;;;15.95;14.25;;;8.80;99.90;;;;;;5097888;28;20070;-73
2022/09/23 05:52:34;;;;;;;15.00;13.40;;;8.90;99.90;;;;;;5095196;28;20393;-72
2022/09/23 05:55:00;;;;;;;16.50;14.45;;;8.90;99.90;;;;;;5089238;28;20040;-73
2022/09/23 05:57:26;;;;;;;15.85;14.20;;;8.90;99.90;;;;;;5105311;28;20047;-74
2022/09/23 05:59:52;;;;;;;15.90;13.93;;;9.00;99.90;;;;;;5105737;28;20040;-74
2022/09/23 06:02:17;;;;;;;16.73;14.90;;;9.00;99.90;;;;;;5101379;28;20036;-72
2022/09/23 06:04:43;;;;;;;16.67;14.25;;;9.00;99.90;;;;;;5098684;28;20036;-74
2022/09/23 06:07:09;;;;;;;18.13;14.80;;;9.10;99.90;;;;;;5102939;28;20460;-74
2022/09/23 06:09:35;;;;;;;17.95;14.93;;;9.10;99.90;;;;;;5100675;28;20439;-74
2022/09/23 06:12:00;;;;;;;18.60;15.20;;;9.20;99.90;;;;;;5105168;28;20039;-74
2022/09/23 06:14:27;;;;;;;17.08;15.27;;;9.20;99.90;;;;;;5107285;28;20123;-74
2022/09/23 06:16:53;;;;;;;16.80;14.95;;;9.20;99.90;;;;;;5100709;28;20043;-74
2022/09/23 06:19:18;;;;;;;16.35;14.65;;;9.20;99.90;;;;;;5103586;28;20409;-75
2022/09/23 06:21:44;;;;;;;17.33;15.48;;;9.30;99.90;;;;;;5104176;28;20028;-74
2022/09/23 06:24:10;;;;;;;17.48;15.68;;;9.30;99.90;;;;;;5107959;28;20051;-74
2022/09/23 06:26:36;;;;;;;15.48;13.90;;;9.40;99.90;;;;;;5112142;28;20031;-74
2022/09/23 06:29:08;;;;;;;18.23;14.63;;;9.50;99.90;;;;;;5078853;28;20081;-74
2022/09/23 06:31:34;;;;;;;16.90;14.18;;;9.50;99.90;;;;;;5092827;28;20421;-74
2022/09/23 06:33:59;;;;;;;16.10;14.38;;;9.50;99.90;;;;;;5094186;28;20035;-75
2022/09/23 06:36:25;;;;;;;17.75;15.43;;;9.60;99.90;;;;;;5093435;28;20525;-74
2022/09/23 06:38:51;;;;;;;16.17;14.50;;;9.70;99.90;;;;;;5096684;28;20449;-74
2022/09/23 06:41:16;;;;;;;18.27;14.82;;;9.70;99.90;;;;;;5092400;28;20039;-74
2022/09/23 06:43:42;;;;;;;19.80;15.00;;;9.80;99.90;;;;;;5102226;28;20092;-75
2022/09/23 06:46:10;;;;;;;19.40;15.82;;;9.80;99.90;;;;;;5102439;28;20076;-75
2022/09/23 06:48:35;;;;;;;17.73;15.13;;;9.90;99.90;;;;;;5104269;28;20045;-74
2022/09/23 06:51:03;;;;;;;17.50;15.00;;;9.90;99.90;;;;;;5099460;28;20051;-73
2022/09/23 06:53:33;;;;;;;19.17;14.63;;;10.00;99.90;;;;;;5083189;28;20404;-74
2022/09/23 06:56:04;;;;;;;17.35;14.65;;;10.00;99.90;;;;;;5090099;28;20081;-75
2022/09/23 06:58:31;;;;;;;17.88;14.68;;;10.10;99.90;;;;;;5106155;28;20039;-74
2022/09/23 07:01:02;;;;;;;17.67;14.98;;;10.10;99.90;;;;;;5103693;28;20687;-75
2022/09/23 07:03:28;;;;;;;15.98;14.27;;;10.20;99.90;;;;;;5094534;28;20032;-74
2022/09/23 07:05:55;;;;;;;18.70;15.65;;;10.20;99.90;;;;;;5089731;28;20040;-74
2022/09/23 07:08:21;;;;;;;20.02;14.75;;;10.20;99.90;;;;;;5089856;28;20043;-75
2022/09/23 07:10:57;;;;;;;17.90;15.30;;;10.20;99.90;;;;;;5090495;28;20402;-75
2022/09/23 07:13:23;;;;;;;18.13;14.43;;;10.30;99.90;;;;;;5092997;28;20559;-75
2022/09/23 07:15:50;;;;;;;17.77;15.05;;;10.30;99.90;;;;;;5090380;28;20044;-74
2022/09/23 07:18:16;;;;;;;17.00;15.20;;;10.30;99.90;;;;;;5089904;28;20081;-73
2022/09/23 07:20:42;;;;;;;17.92;14.57;;;10.40;99.90;;;;;;5091252;28;20032;-74
2022/09/23 07:23:07;;;;;;;18.38;14.95;;;10.40;99.90;;;;;;5089586;28;20081;-74
2022/09/23 07:25:33;;;;;;;17.73;15.15;;;10.40;99.90;;;;;;5089680;28;20036;-74
2022/09/23 07:27:59;;;;;;;16.70;15.02;;;10.50;99.90;;;;;;5072452;28;20177;-74
2022/09/23 07:30:25;;;;;;;18.42;15.38;;;10.50;99.90;;;;;;5089444;28;20471;-73
2022/09/23 07:32:51;;;;;;;17.15;15.05;;;10.60;99.90;;;;;;5091334;28;20044;-74
2022/09/23 07:35:18;;;;;;;16.30;14.70;;;10.70;99.90;;;;;;5094033;28;20036;-75
2022/09/23 07:37:44;;;;;;;19.50;14.73;;;10.70;99.90;;;;;;5091884;28;20039;-74
2022/09/23 07:40:11;;;;;;;17.50;14.60;;;10.80;99.90;;;;;;5089819;28;20071;-75
2022/09/23 07:42:39;;;;;;;16.63;14.93;;;10.90;99.90;;;;;;5088302;28;20032;-75
2022/09/23 07:45:06;;;;;;;19.42;15.68;;;10.90;99.90;;;;;;5095415;28;20067;-74
2022/09/23 07:47:32;;;;;;;17.38;15.57;;;10.90;99.90;;;;;;5091665;28;20044;-75
2022/09/23 07:49:57;;;;;;;17.67;14.63;;;11.00;99.90;;;;;;5098111;28;20065;-75
2022/09/23 07:52:23;;;;;;;16.92;14.15;;;11.10;99.90;;;;;;5097791;28;20032;-73
2022/09/23 07:54:48;;;;;;;17.20;15.30;;;11.20;99.90;;;;;;5092090;28;20115;-75
2022/09/23 07:57:14;;;;;;;17.20;15.07;;;11.30;99.90;;;;;;5094560;28;20044;-75
2022/09/23 07:59:39;;;;;;;18.63;14.45;;;11.30;99.90;;;;;;5100086;28;20036;-75
2022/09/23 08:02:05;;;;;;;18.63;14.88;;;11.40;99.90;;;;;;5101334;28;20092;-75
2022/09/23 08:04:32;;;;;;;16.92;14.65;;;11.50;99.90;;;;;;5094824;28;20584;-75
2022/09/23 08:07:03;;;;;;;19.70;14.73;;;11.50;99.90;;;;;;5102329;28;20064;-75
2022/09/23 08:09:38;;;;;;;20.42;14.75;;;11.60;99.90;;;;;;5095745;28;20100;-75
2022/09/23 08:12:04;;;;;;;16.38;14.68;;;11.60;99.90;;;;;;5080125;28;20457;-74
2022/09/23 08:14:30;;;;;;;16.02;14.07;;;11.70;99.90;;;;;;5096742;28;20079;-74
2022/09/23 08:16:56;;;;;;;18.20;13.93;;;11.80;99.90;;;;;;5098824;28;20063;-74
2022/09/23 08:19:22;;;;;;;16.20;13.75;;;11.90;99.90;;;;;;5095070;28;20525;-75
2022/09/23 08:21:49;;;;;;;15.88;14.07;;;12.00;99.90;;;;;;5092536;28;20127;-74
2022/09/23 08:24:19;;;;;;;16.30;13.88;;;12.10;99.90;;;;;;5094796;28;20071;-75
2022/09/23 08:26:46;;;;;;;16.58;13.50;;;12.10;99.90;;;;;;5098985;28;20694;-75
2022/09/23 08:29:14;;;;;;;15.25;13.65;;;12.20;99.90;;;;;;5101938;28;20482;-75
2022/09/23 08:31:40;;;;;;;15.20;13.18;;;12.30;99.90;;;;;;5103744;28;20032;-75
2022/09/23 08:34:06;;;;;;;29.05;13.75;;;12.30;99.90;;;;;;5113095;28;20069;-76
2022/09/23 08:36:32;;;;;;;18.95;13.63;;;12.40;99.90;;;;;;5105699;28;20100;-75
2022/09/23 08:38:57;;;;;;;18.02;13.85;;;12.50;99.90;;;;;;5108164;28;20040;-76
2022/09/23 08:41:46;;;;;;;16.58;13.18;;;12.50;99.90;;;;;;5087845;28;20062;-75
2022/09/23 08:44:46;;;;;;;15.35;13.05;;;12.60;99.90;;;;;;5105595;28;20138;-75
2022/09/23 08:47:27;;;;;;;15.68;12.45;;;12.70;99.90;;;;;;5099974;28;20036;-76
2022/09/23 08:50:10;;;;;;;13.73;12.07;;;12.80;99.90;;;;;;5112146;28;20089;-74
2022/09/23 08:52:55;;;;;;;14.07;12.23;;;13.00;99.90;;;;;;5126037;27;20063;-75
2022/09/23 08:55:33;;;;;;;13.15;11.75;;;13.10;99.90;;;;;;5098863;28;20039;-75
2022/09/23 08:58:06;;;;;;;13.70;11.77;;;13.20;99.90;;;;;;5113244;27;20098;-75
2022/09/23 09:01:04;;;;;;;15.23;11.50;;;13.20;99.90;;;;;;5106820;28;20035;-76
2022/09/23 09:03:35;;;;;;;15.20;11.68;;;13.30;99.90;;;;;;5105103;28;20036;-75
2022/09/23 09:06:02;;;;;;;15.07;11.90;;;13.30;99.90;;;;;;5091973;28;20453;-75
2022/09/23 09:08:33;;;;;;;15.15;11.68;;;13.40;99.90;;;;;;5091603;28;20043;-75
2022/09/23 09:10:58;;;;;;;12.80;10.93;;;13.50;99.90;;;;;;5074723;28;20468;-75
2022/09/23 09:13:33;;;;;;;15.10;11.98;;;13.50;99.90;;;;;;5075181;28;20071;-76
2022/09/23 09:16:35;;;;;;;12.25;10.85;;;13.60;99.90;;;;;;5092071;28;20122;-75
2022/09/23 09:19:01;;;;;;;12.25;10.95;;;13.60;99.90;;;;;;5111438;28;20092;-76
2022/09/23 09:21:36;;;;;;;26.05;12.27;;;13.70;99.90;;;;;;5101844;28;20066;-75
2022/09/23 09:24:05;;;;;;;11.77;10.35;;;13.80;99.90;;;;;;5090358;28;20668;-75
2022/09/23 09:26:32;;;;;;;12.68;10.73;;;13.90;99.90;;;;;;5075094;28;20046;-75
2022/09/23 09:29:15;;;;;;;12.48;10.98;;;13.90;99.90;;;;;;5091747;28;20048;-74
2022/09/23 09:31:43;;;;;;;13.48;10.35;;;14.00;99.90;;;;;;5091787;28;20043;-74
2022/09/23 09:34:34;;;;;;;15.50;11.50;;;14.00;99.90;;;;;;5091541;28;20055;-76
2022/09/23 09:37:06;;;;;;;12.82;10.32;;;14.00;99.90;;;;;;5091743;28;20036;-76
2022/09/23 09:39:33;;;;;;;12.70;10.70;;;14.10;99.90;;;;;;5091414;28;20047;-76
2022/09/23 09:41:59;;;;;;;12.80;10.77;;;14.10;99.90;;;;;;5090305;28;20064;-74
2022/09/23 09:44:41;;;;;;;14.35;11.05;;;14.10;99.90;;;;;;5090350;28;20212;-74
2022/09/23 09:47:27;;;;;;;10.93;9.75;;;14.20;99.90;;;;;;5091338;28;20434;-74
2022/09/23 09:50:17;;;;;;;12.50;10.98;;;14.20;99.90;;;;;;5074618;28;20051;-75
2022/09/23 09:52:43;;;;;;;12.32;9.82;;;14.20;99.90;;;;;;5091057;28;20036;-74
2022/09/23 09:55:12;;;;;;;14.25;10.45;;;14.20;99.90;;;;;;5097194;28;20625;-74
2022/09/23 09:57:41;;;;;;;12.05;10.65;;;14.20;99.90;;;;;;5105413;28;20074;-76
2022/09/23 10:00:21;;;;;;;10.52;9.43;;;14.20;99.90;;;;;;5091030;28;20496;-73
2022/09/23 10:02:58;;;;;;;12.35;10.07;;;14.20;99.90;;;;;;5091117;28;20115;-76
2022/09/23 10:05:45;;;;;;;11.88;9.50;;;14.30;99.90;;;;;;5091435;28;20473;-75
2022/09/23 10:08:27;;;;;;;12.45;9.98;;;14.30;99.90;;;;;;5090747;28;20520;-75
2022/09/23 10:11:10;;;;;;;12.07;10.10;;;14.40;99.90;;;;;;5090034;28;20043;-74
2022/09/23 10:13:36;;;;;;;13.80;9.88;;;14.40;99.90;;;;;;5072244;28;20055;-74
2022/09/23 10:16:03;;;;;;;12.45;9.20;;;14.50;99.90;;;;;;5090409;28;20055;-75
2022/09/23 10:18:37;;;;;;;11.30;10.00;;;14.50;99.90;;;;;;5073344;28;20039;-75
2022/09/23 10:21:20;;;;;;;12.90;9.68;;;14.60;99.90;;;;;;5100207;28;20063;-75
2022/09/23 10:24:00;;;;;;;12.80;10.20;;;14.60;99.90;;;;;;5103691;28;20028;-74
2022/09/23 10:26:31;;;;;;;10.73;9.00;;;14.70;99.90;;;;;;5111103;28;20111;-75
2022/09/23 10:28:58;;;;;;;10.77;8.52;;;14.70;99.90;;;;;;5109300;28;20070;-74
2022/09/23 10:31:32;;;;;;;10.48;8.60;;;14.70;99.90;;;;;;5104425;28;20050;-74
2022/09/23 10:34:00;;;;;;;10.70;8.50;;;14.70;99.90;;;;;;5102595;28;20051;-73
2022/09/23 10:36:28;;;;;;;11.73;8.82;;;14.80;99.90;;;;;;5108623;28;20071;-74
2022/09/23 10:46:37;;;;;;;13.23;8.75;;;14.80;99.90;;;;;;5108450;28;20039;-73
2022/09/23 10:47:59;;;;;;;9.55;8.25;;;14.90;99.90;;;;;;5103719;28;20032;-74
2022/09/23 10:50:40;;;;;;;11.20;9.05;;;15.00;99.90;;;;;;5108496;28;20188;-74
2022/09/23 10:53:49;;;;;;;11.73;8.35;;;15.10;99.90;;;;;;5104828;28;20046;-75
2022/09/23 10:56:34;;;;;;;11.68;9.20;;;15.20;99.90;;;;;;5098496;28;20036;-75
2022/09/23 10:59:35;;;;;;;10.85;8.90;;;15.30;99.90;;;;;;5099133;28;20036;-75
2022/09/23 11:02:15;;;;;;;11.60;9.20;;;15.40;99.90;;;;;;5093830;28;20039;-75
2022/09/23 11:05:14;;;;;;;9.48;8.48;;;15.50;99.90;;;;;;5097638;28;20042;-75
2022/09/23 11:07:51;;;;;;;14.65;9.10;;;15.60;99.90;;;;;;5089830;28;20048;-73
2022/09/23 11:10:32;;;;;;;11.98;9.00;;;15.70;99.90;;;;;;5086132;28;20111;-74
2022/09/23 11:12:57;;;;;;;11.70;9.45;;;15.70;99.90;;;;;;5103786;28;20055;-74
2022/09/23 11:15:32;;;;;;;11.13;8.75;;;15.70;99.90;;;;;;5105428;28;21810;-74
2022/09/23 11:18:29;;;;;;;11.63;9.13;;;15.70;99.90;;;;;;5098647;28;20396;-74
2022/09/23 11:20:59;;;;;;;13.27;9.15;;;15.80;99.90;;;;;;5089358;28;20063;-74
2022/09/23 11:23:50;;;;;;;13.27;9.30;;;15.70;99.90;;;;;;5098355;28;20067;-74
2022/09/23 11:26:36;;;;;;;12.32;9.35;;;15.70;99.90;;;;;;5095385;28;20032;-74
2022/09/23 11:29:20;;;;;;;13.68;9.38;;;15.60;99.90;;;;;;5073068;28;20047;-74
2022/09/23 11:32:01;;;;;;;;;;;15.60;99.90;;;;;;5105422;28;20032;-74
2022/09/23 11:35:01;;;;;;;12.40;8.80;;;15.50;99.90;;;;;;5104095;28;19922;-76
2022/09/23 11:37:38;;;;;;;11.90;9.13;;;15.50;99.90;;;;;;5099738;28;20035;-74
2022/09/23 11:40:16;;;;;;;10.10;8.20;;;15.50;99.90;;;;;;5100884;28;20047;-75
2022/09/23 11:43:03;;;;;;;11.02;8.88;;;15.50;99.90;;;;;;5101137;28;20062;-75
2022/09/23 11:45:38;;;;;;;10.93;8.82;;;15.60;99.90;;;;;;5103199;28;20077;-75
2022/09/23 11:48:19;;;;;;;11.73;8.90;;;15.60;99.90;;;;;;5104658;28;20130;-74
2022/09/23 11:51:03;;;;;;;12.90;9.32;;;15.70;99.90;;;;;;5105084;28;20038;-75
2022/09/23 11:53:36;;;;;;;;;;;15.70;99.90;;;;;;5105828;28;20485;-75
2022/09/23 11:56:20;;;;;;;14.63;9.13;;;15.70;99.90;;;;;;5105315;28;19915;-75
2022/09/23 11:59:23;;;;;;;10.02;8.90;;;15.80;99.90;;;;;;5110546;28;20081;-75
2022/09/23 12:01:54;;;;;;;13.82;8.93;;;15.80;99.90;;;;;;5110257;28;20035;-74
2022/09/23 12:04:34;;;;;;;11.85;9.10;;;15.90;99.90;;;;;;5101785;28;20370;-75
2022/09/23 12:07:21;;;;;;;13.07;9.63;;;15.90;99.90;;;;;;5101528;28;20032;-75
2022/09/23 12:10:04;;;;;;;13.50;9.40;;;15.90;99.90;;;;;;5104388;28;20508;-74
2022/09/23 12:12:47;;;;;;;13.07;9.15;;;15.90;99.90;;;;;;5109569;28;20036;-75
2022/09/23 12:15:44;;;;;;;9.95;8.82;;;15.80;99.90;;;;;;5110388;28;20031;-76
2022/09/23 12:18:27;;;;;;;14.25;9.88;;;15.80;99.90;;;;;;5105780;27;20063;-74
2022/09/23 12:21:15;;;;;;;11.98;8.82;;;15.80;99.90;;;;;;5113258;28;20035;-75
2022/09/23 12:24:00;;;;;;;11.68;9.40;;;15.90;99.90;;;;;;5095384;28;20036;-75
2022/09/23 12:26:26;;;;;;;11.15;9.13;;;15.90;99.90;;;;;;5084817;28;20036;-76
2022/09/23 12:28:57;;;;;;;11.57;9.52;;;16.00;99.90;;;;;;5102968;28;21298;-76
2022/09/23 12:31:31;;;;;;;12.13;8.82;;;16.00;99.90;;;;;;5102560;28;20080;-76
2022/09/23 12:33:58;;;;;;;;;;;16.10;99.90;;;;;;5094222;28;20039;-75
2022/09/23 12:36:34;;;;;;;13.82;10.10;;;16.10;99.90;;;;;;5109246;28;19916;-75
2022/09/23 12:39:13;;;;;;;13.70;9.77;;;16.20;99.90;;;;;;5106700;28;20099;-75
2022/09/23 12:41:41;;;;;;;11.80;8.90;;;16.20;99.90;;;;;;5107282;28;20575;-75
2022/09/23 12:44:11;;;;;;;12.32;9.45;;;16.30;99.90;;;;;;5107476;28;20027;-75
2022/09/23 12:46:38;;;;;;;11.63;9.60;;;16.30;99.90;;;;;;5097083;28;20047;-75
2022/09/23 12:49:19;;;;;;;13.38;9.73;;;16.30;99.90;;;;;;5090126;28;20087;-74
2022/09/23 12:52:11;;;;;;;12.75;9.82;;;16.30;99.90;;;;;;5091645;28;20047;-76
2022/09/23 12:54:45;;;;;;;11.75;9.75;;;16.30;99.90;;;;;;5092196;28;20036;-75
2022/09/23 12:57:12;;;;;;;11.68;9.95;;;16.30;99.90;;;;;;5093754;28;20073;-75
2022/09/23 12:59:50;;;;;;;12.02;10.23;;;16.30;99.90;;;;;;5091555;28;20047;-74
2022/09/23 13:02:28;;;;;;;12.05;9.98;;;16.30;99.90;;;;;;5107492;28;20040;-75
2022/09/23 13:08:04;;;;;;;11.18;9.80;;;16.30;99.90;;;;;;5095215;28;20048;-76
2022/09/23 13:11:03;;;;;;;12.70;9.90;;;16.20;99.90;;;;;;5077834;28;20040;-74
2022/09/23 13:13:39;;;;;;;14.32;10.98;;;16.20;99.90;;;;;;5104848;28;20044;-75
2022/09/23 13:16:25;;;;;;;14.68;10.68;;;16.10;99.90;;;;;;5092828;28;20071;-75
2022/09/23 13:18:53;;;;;;;12.48;10.95;;;16.00;99.90;;;;;;5105448;28;20047;-76